createdAt,value
2022-09-04T00:00:21.921Z,2.90
2022-09-04T00:03:36.174Z,3.50
2022-09-04T00:06:12.975Z,2.97
2022-09-04T00:09:12.503Z,2.83
2022-09-04T00:11:56.019Z,2.83
2022-09-04T00:14:41.924Z,2.83
2022-09-04T00:17:32.458Z,3.40
2022-09-04T00:20:09.567Z,2.67
2022-09-04T00:22:44.652Z,4.85
2022-09-04T00:25:19.263Z,3.15
2022-09-04T00:27:53.517Z,3.50
2022-09-04T00:30:26.912Z,3.87
2022-09-04T00:33:33.484Z,3.90
2022-09-04T00:36:06.138Z,3.67
2022-09-04T00:38:59.612Z,3.58
2022-09-04T00:41:33.635Z,3.35
2022-09-04T00:44:27.737Z,3.40
2022-09-04T00:47:07.454Z,3.50
2022-09-04T00:49:42.815Z,3.00
2022-09-04T00:52:29.604Z,3.12
2022-09-04T00:55:22.377Z,3.10
2022-09-04T00:58:30.970Z,3.67
2022-09-04T01:01:01.179Z,3.17
2022-09-04T01:03:36.918Z,3.33
2022-09-04T01:06:32.873Z,3.60
2022-09-04T01:09:45.483Z,3.60
2022-09-04T01:12:33.196Z,3.17
2022-09-04T01:15:14.679Z,3.40
2022-09-04T01:18:04.458Z,3.37
2022-09-04T01:20:54.639Z,3.78
2022-09-04T01:23:22.800Z,3.75
2022-09-04T01:26:01.770Z,3.67
2022-09-04T01:28:52.603Z,4.20
2022-09-04T01:31:39.446Z,3.97
2022-09-04T01:34:20.856Z,3.80
2022-09-04T01:36:57.078Z,5.10
2022-09-04T01:39:26.698Z,5.50
2022-09-04T01:44:41.377Z,4.90
2022-09-04T01:47:26.335Z,4.05
2022-09-04T01:50:00.861Z,3.87
2022-09-04T01:52:36.816Z,3.78
2022-09-04T01:55:17.180Z,3.40
2022-09-04T01:58:09.889Z,3.35
2022-09-04T02:01:04.763Z,3.70
2022-09-04T02:03:40.348Z,4.90
2022-09-04T02:06:36.794Z,4.03
2022-09-04T02:09:33.960Z,4.20
2022-09-04T02:12:36.037Z,4.90
2022-09-04T02:15:18.254Z,4.72
2022-09-04T02:18:15.595Z,4.47
2022-09-04T02:20:50.116Z,4.75
2022-09-04T02:23:29.935Z,4.95
2022-09-04T02:26:04.917Z,4.60
2022-09-04T02:29:01.985Z,4.95
2022-09-04T02:31:49.369Z,4.57
2022-09-04T02:34:30.364Z,5.20
2022-09-04T02:37:26.915Z,5.22
2022-09-04T02:40:04.303Z,4.97
2022-09-04T02:42:40.046Z,4.68
2022-09-04T02:45:14.350Z,4.57
2022-09-04T02:48:05.698Z,4.68
2022-09-04T02:50:55.675Z,5.00
2022-09-04T02:53:31.575Z,5.23
2022-09-04T02:56:21.504Z,4.62
2022-09-04T02:59:28.728Z,6.05
2022-09-04T03:02:05.504Z,5.37
2022-09-04T03:05:05.150Z,4.57
2022-09-04T03:07:49.629Z,4.43
2022-09-04T03:10:20.294Z,4.62
2022-09-04T03:12:52.758Z,4.83
2022-09-04T03:15:35.123Z,4.90
2022-09-04T03:18:14.973Z,5.00
2022-09-04T03:21:08.527Z,4.72
2022-09-04T03:23:46.318Z,4.37
2022-09-04T03:26:20.964Z,4.97
2022-09-04T03:28:54.673Z,4.50
2022-09-04T03:31:29.482Z,4.25
2022-09-04T03:34:11.627Z,4.75
2022-09-04T03:37:12.873Z,4.65
2022-09-04T03:40:04.595Z,4.72
2022-09-04T03:42:45.441Z,4.53
2022-09-04T03:45:22.861Z,3.97
2022-09-04T03:48:09.986Z,3.37
2022-09-04T03:50:57.004Z,3.72
2022-09-04T03:53:41.126Z,4.03
2022-09-04T03:56:43.542Z,3.85
2022-09-04T03:59:26.632Z,4.43
2022-09-04T04:02:04.914Z,4.10
2022-09-04T04:04:49.418Z,4.82
2022-09-04T04:07:47.071Z,4.75
2022-09-04T04:10:55.382Z,4.18
2022-09-04T04:13:48.649Z,3.95
2022-09-04T04:16:32.329Z,3.85
2022-09-04T04:19:24.926Z,5.32
2022-09-04T04:22:21.795Z,4.95
2022-09-04T04:24:57.577Z,4.85
2022-09-04T04:28:01.644Z,4.25
2022-09-04T04:30:37.472Z,4.57
2022-09-04T04:33:18.014Z,5.28
2022-09-04T04:36:10.265Z,4.90
2022-09-04T04:39:19.880Z,4.50
2022-09-04T04:42:10.553Z,4.95
2022-09-04T04:45:24.655Z,5.12
2022-09-04T04:48:00.671Z,4.75
2022-09-04T04:50:42.670Z,4.95
2022-09-04T04:53:24.959Z,4.82
2022-09-04T04:59:20.787Z,5.05
2022-09-04T05:01:51.956Z,4.87
2022-09-04T05:04:25.478Z,4.75
2022-09-04T05:07:01.791Z,4.93
2022-09-04T05:09:37.832Z,4.68
2022-09-04T05:12:15.414Z,4.50
2022-09-04T05:14:55.929Z,4.35
2022-09-04T05:17:45.455Z,3.97
2022-09-04T05:20:38.615Z,4.70
2022-09-04T05:23:24.928Z,4.32
2022-09-04T05:26:26.724Z,4.53
2022-09-04T05:29:18.273Z,4.80
2022-09-04T05:32:31.124Z,4.22
2022-09-04T05:35:12.156Z,3.50
2022-09-04T05:38:07.736Z,3.65
2022-09-04T05:40:50.941Z,3.55
2022-09-04T05:43:38.096Z,3.78
2022-09-04T05:46:22.528Z,3.65
2022-09-04T05:49:09.454Z,3.83
2022-09-04T05:52:01.090Z,3.45
2022-09-04T05:54:55.714Z,3.70
2022-09-04T05:57:49.320Z,3.60
2022-09-04T06:00:21.091Z,3.62
2022-09-04T06:03:00.433Z,3.53
2022-09-04T06:05:58.476Z,3.67
2022-09-04T06:08:54.520Z,3.72
2022-09-04T06:11:45.142Z,3.78
2022-09-04T06:14:20.638Z,3.35
2022-09-04T06:17:14.055Z,3.37
2022-09-04T06:20:02.538Z,3.30
2022-09-04T06:23:03.364Z,3.20
2022-09-04T06:25:58.842Z,3.37
2022-09-04T06:28:40.920Z,3.37
2022-09-04T06:33:44.762Z,2.80
2022-09-04T06:36:38.998Z,2.87
2022-09-04T06:39:22.417Z,2.97
2022-09-04T06:42:00.488Z,3.05
2022-09-04T06:45:04.506Z,3.05
2022-09-04T06:48:11.637Z,3.42
2022-09-04T06:50:46.689Z,2.95
2022-09-04T06:53:43.428Z,2.70
2022-09-04T06:56:24.240Z,2.95
2022-09-04T06:59:27.284Z,3.05
2022-09-04T07:02:04.299Z,3.00
2022-09-04T07:04:48.370Z,3.37
2022-09-04T07:07:19.818Z,2.83
2022-09-04T07:10:01.332Z,2.90
2022-09-04T07:15:49.899Z,3.13
2022-09-04T07:18:39.017Z,2.87
2022-09-04T07:21:48.743Z,2.83
2022-09-04T07:24:39.757Z,3.15
2022-09-04T07:27:42.117Z,2.97
2022-09-04T07:30:16.081Z,3.12
2022-09-04T07:32:51.511Z,3.12
2022-09-04T07:35:39.497Z,3.35
2022-09-04T07:38:34.973Z,3.10
2022-09-04T07:41:20.119Z,3.00
2022-09-04T07:44:04.182Z,2.78
2022-09-04T07:47:12.190Z,2.90
2022-09-04T07:50:17.670Z,2.75
2022-09-04T07:53:04.156Z,2.87
2022-09-04T07:55:41.496Z,2.60
2022-09-04T07:58:20.114Z,3.28
2022-09-04T08:01:00.513Z,3.17
2022-09-04T08:03:53.844Z,3.28
2022-09-04T08:06:34.065Z,2.85
2022-09-04T08:09:05.739Z,3.33
2022-09-04T08:11:34.028Z,3.25
2022-09-04T08:14:18.570Z,3.25
2022-09-04T08:17:24.623Z,3.20
2022-09-04T08:20:12.771Z,3.05
2022-09-04T08:23:13.286Z,3.00
2022-09-04T08:25:53.940Z,3.10
2022-09-04T08:28:59.455Z,2.62
2022-09-04T08:31:37.480Z,2.83
2022-09-04T08:34:11.908Z,2.78
2022-09-04T08:36:52.892Z,2.90
2022-09-04T08:39:32.875Z,3.00
2022-09-04T08:42:17.621Z,2.97
2022-09-04T08:45:04.602Z,3.28
2022-09-04T08:47:55.353Z,3.50
2022-09-04T08:51:03.463Z,2.92
2022-09-04T08:53:47.748Z,3.45
2022-09-04T08:56:39.104Z,3.40
2022-09-04T08:59:42.784Z,3.47
2022-09-04T09:02:41.955Z,2.90
2022-09-04T09:05:45.968Z,3.05
2022-09-04T09:08:21.784Z,3.20
2022-09-04T09:11:19.681Z,3.28
2022-09-04T09:14:25.576Z,3.20
2022-09-04T09:17:10.294Z,2.53
2022-09-04T09:20:02.925Z,3.50
2022-09-04T09:23:10.788Z,3.15
2022-09-04T09:25:44.100Z,3.30
2022-09-04T09:28:23.478Z,3.28
2022-09-04T09:31:17.073Z,3.33
2022-09-04T09:34:19.352Z,3.40
2022-09-04T09:37:06.790Z,3.17
2022-09-04T09:40:09.801Z,2.95
2022-09-04T09:42:48.939Z,3.60
2022-09-04T09:45:27.887Z,3.55
2022-09-04T09:48:14.687Z,3.50
2022-09-04T09:51:10.127Z,3.30
2022-09-04T09:54:16.725Z,3.35
2022-09-04T09:57:00.325Z,3.33
2022-09-04T09:59:55.733Z,3.15
2022-09-04T10:02:33.608Z,3.10
2022-09-04T10:05:11.215Z,2.87
2022-09-04T10:08:21.743Z,2.90
2022-09-04T10:11:23.932Z,2.80
2022-09-04T10:14:17.075Z,2.58
2022-09-04T10:17:30.896Z,3.08
2022-09-04T10:20:24.025Z,2.83
2022-09-04T10:23:08.012Z,2.83
2022-09-04T10:25:55.552Z,3.00
2022-09-04T10:28:45.251Z,2.97
2022-09-04T10:31:32.949Z,3.03
2022-09-04T10:34:41.728Z,2.67
2022-09-04T10:37:19.490Z,2.90
2022-09-04T10:40:18.705Z,2.92
2022-09-04T10:43:11.681Z,3.62
2022-09-04T10:46:01.230Z,3.75
2022-09-04T10:48:59.100Z,3.95
2022-09-04T10:51:37.524Z,3.50
2022-09-04T10:54:33.848Z,4.03
2022-09-04T10:57:31.927Z,3.97
2022-09-04T11:00:08.685Z,3.80
2022-09-04T11:02:57.233Z,4.03
2022-09-04T11:05:37.896Z,3.72
2022-09-04T11:08:36.573Z,3.95
2022-09-04T11:11:23.691Z,4.60
2022-09-04T11:14:06.917Z,4.25
2022-09-04T11:16:57.045Z,4.05
2022-09-04T11:20:03.452Z,3.58
2022-09-04T11:22:46.219Z,3.50
2022-09-04T11:25:52.532Z,3.37
2022-09-04T11:28:57.107Z,3.65
2022-09-04T11:32:03.361Z,4.10
2022-09-04T11:34:57.337Z,3.28
2022-09-04T11:37:36.731Z,3.42
2022-09-04T11:40:26.480Z,4.37
2022-09-04T11:43:01.214Z,3.10
2022-09-04T11:45:41.636Z,3.28
2022-09-04T11:48:37.901Z,3.17
2022-09-04T11:51:39.726Z,2.95
2022-09-04T11:54:11.317Z,2.55
2022-09-04T11:56:58.298Z,2.58
2022-09-04T11:59:56.395Z,2.92
2022-09-04T12:02:30.957Z,2.90
2022-09-04T12:05:19.155Z,2.80
2022-09-04T12:07:59.638Z,2.70
2022-09-04T12:13:15.864Z,2.53
2022-09-04T12:15:54.729Z,2.62
2022-09-04T12:18:56.186Z,2.58
2022-09-04T12:21:54.280Z,2.67
2022-09-04T12:24:34.342Z,3.08
2022-09-04T12:27:39.365Z,2.78
2022-09-04T12:30:08.041Z,2.47
2022-09-04T12:32:49.002Z,2.85
2022-09-04T12:35:39.493Z,2.90
2022-09-04T12:38:15.471Z,2.60
2022-09-04T12:40:58.786Z,2.92
2022-09-04T12:43:43.177Z,2.60
2022-09-04T12:46:14.479Z,2.78
2022-09-04T12:48:57.018Z,2.72
2022-09-04T12:51:31.563Z,2.80
2022-09-04T12:54:13.878Z,2.65
2022-09-04T12:56:49.094Z,2.90
2022-09-04T12:59:45.213Z,2.60
2022-09-04T13:02:38.482Z,2.90
2022-09-04T13:05:41.892Z,2.60
2022-09-04T13:09:02.298Z,2.83
2022-09-04T13:11:54.751Z,2.78
2022-09-04T13:14:54.140Z,2.67
2022-09-04T13:17:44.312Z,2.60
2022-09-04T13:20:22.503Z,2.50
2022-09-04T13:23:11.087Z,2.70
2022-09-04T13:26:12.267Z,2.58
2022-09-04T13:28:58.589Z,2.50
2022-09-04T13:31:42.095Z,2.60
2022-09-04T13:34:55.085Z,2.33
2022-09-04T13:37:56.476Z,2.40
2022-09-04T13:41:03.649Z,2.35
2022-09-04T13:43:41.414Z,2.60
2022-09-04T13:46:18.541Z,2.45
2022-09-04T13:48:52.315Z,2.12
2022-09-04T13:51:31.141Z,2.10
2022-09-04T13:54:27.103Z,2.10
2022-09-04T13:57:14.878Z,2.30
2022-09-04T13:59:46.301Z,2.25
2022-09-04T14:02:24.856Z,2.35
2022-09-04T14:05:01.330Z,2.40
2022-09-04T14:07:44.820Z,2.50
2022-09-04T14:10:18.300Z,2.40
2022-09-04T14:13:03.405Z,2.37
2022-09-04T14:15:41.073Z,2.30
2022-09-04T14:18:14.258Z,2.30
2022-09-04T14:21:01.421Z,2.45
2022-09-04T14:23:42.308Z,2.30
2022-09-04T14:26:20.715Z,2.58
2022-09-04T14:28:54.121Z,2.33
2022-09-04T14:31:34.059Z,2.58
2022-09-04T14:34:16.245Z,2.60
2022-09-04T14:37:26.962Z,2.40
2022-09-04T14:40:10.290Z,2.50
2022-09-04T14:42:46.914Z,2.62
2022-09-04T14:45:32.440Z,3.00
2022-09-04T14:48:06.789Z,2.40
2022-09-04T14:50:47.601Z,2.58
2022-09-04T14:53:29.673Z,2.50
2022-09-04T14:56:26.232Z,2.28
2022-09-04T14:59:00.287Z,2.78
2022-09-04T15:01:29.536Z,2.78
2022-09-04T15:04:10.831Z,2.57
2022-09-04T15:09:43.811Z,2.53
2022-09-04T15:12:25.546Z,2.55
2022-09-04T15:14:59.359Z,2.85
2022-09-04T15:17:28.670Z,2.72
2022-09-04T15:20:14.185Z,2.30
2022-09-04T15:23:02.725Z,2.60
2022-09-04T15:25:57.651Z,2.20
2022-09-04T15:28:38.708Z,2.47
2022-09-04T15:31:16.021Z,2.70
2022-09-04T15:33:47.367Z,2.75
2022-09-04T15:36:20.322Z,2.65
2022-09-04T15:38:52.236Z,2.42
2022-09-04T15:41:35.285Z,2.62
2022-09-04T15:44:39.085Z,2.40
2022-09-04T15:47:38.525Z,2.60
2022-09-04T15:50:26.469Z,2.72
2022-09-04T15:53:00.673Z,2.53
2022-09-04T15:55:37.368Z,2.40
2022-09-04T15:58:23.803Z,2.67
2022-09-04T16:01:16.797Z,2.60
2022-09-04T16:03:55.517Z,2.47
2022-09-04T16:06:38.035Z,2.25
2022-09-04T16:09:17.054Z,2.50
2022-09-04T16:12:00.987Z,2.87
2022-09-04T16:14:44.875Z,2.70
2022-09-04T16:17:25.292Z,2.78
2022-09-04T16:20:07.970Z,2.58
2022-09-04T16:22:50.101Z,2.65
2022-09-04T16:25:19.288Z,2.70
2022-09-04T16:27:54.519Z,3.03
2022-09-04T16:30:35.409Z,2.87
2022-09-04T16:33:12.953Z,2.70
2022-09-04T16:35:52.570Z,2.65
2022-09-04T16:38:26.057Z,2.60
2022-09-04T16:40:59.592Z,3.08
2022-09-04T16:43:29.402Z,3.00
2022-09-04T16:48:58.172Z,2.78
2022-09-04T16:51:40.977Z,2.87
2022-09-04T16:54:21.259Z,3.22
2022-09-04T16:57:12.420Z,2.97
2022-09-04T16:59:58.809Z,3.15
2022-09-04T17:02:49.025Z,3.22
2022-09-04T17:05:35.312Z,3.28
2022-09-04T17:08:17.989Z,3.08
2022-09-04T17:11:30.568Z,2.78
2022-09-04T17:14:32.408Z,2.75
2022-09-04T17:17:31.366Z,3.35
2022-09-04T17:20:08.249Z,3.42
2022-09-04T17:28:09.365Z,3.80
2022-09-04T17:29:19.625Z,3.12
2022-09-04T17:29:22.444Z,3.37
2022-09-04T17:31:53.855Z,4.53
2022-09-04T17:40:44.351Z,3.95
2022-09-04T17:43:29.585Z,3.90
2022-09-04T17:46:26.679Z,3.15
2022-09-04T17:48:56.080Z,3.95
2022-09-04T17:51:27.928Z,4.60
2022-09-04T17:54:02.348Z,4.45
2022-09-04T17:56:55.145Z,5.03
2022-09-04T17:59:28.880Z,5.65
2022-09-04T18:02:21.467Z,4.35
2022-09-04T18:05:11.907Z,3.78
2022-09-04T18:08:10.051Z,3.83
2022-09-04T18:10:52.310Z,3.75
2022-09-04T18:13:40.849Z,3.65
2022-09-04T18:16:33.534Z,3.30
2022-09-04T18:19:15.003Z,3.58
2022-09-04T18:21:46.004Z,3.42
2022-09-04T18:24:21.284Z,3.50
2022-09-04T18:27:11.696Z,3.42
2022-09-04T18:30:58.588Z,4.37
2022-09-04T18:37:16.635Z,3.40
2022-09-04T18:37:22.455Z,3.47
2022-09-04T18:39:08.902Z,3.20
2022-09-04T18:49:28.312Z,3.55
2022-09-04T18:50:29.642Z,3.80
2022-09-04T18:50:48.964Z,3.60
2022-09-04T18:54:10.456Z,3.90
2022-09-04T18:56:44.902Z,4.00
2022-09-04T18:59:23.824Z,3.70
2022-09-04T19:02:14.276Z,4.03
2022-09-04T19:05:12.006Z,4.30
2022-09-04T19:07:47.256Z,3.67
2022-09-04T19:10:22.377Z,3.72
2022-09-04T19:12:58.309Z,3.40
2022-09-04T19:15:49.423Z,3.97
2022-09-04T19:18:30.695Z,3.85
2022-09-04T19:21:02.473Z,3.95
2022-09-04T19:23:44.227Z,3.65
2022-09-04T19:26:47.923Z,3.83
2022-09-04T19:29:23.664Z,3.90
2022-09-04T19:32:09.082Z,4.32
2022-09-04T19:35:07.360Z,4.28
2022-09-04T19:40:36.634Z,3.92
2022-09-04T19:45:55.730Z,3.83
2022-09-04T19:46:15.861Z,4.60
2022-09-04T19:47:27.462Z,4.57
2022-09-04T19:53:34.344Z,4.40
2022-09-04T19:53:37.787Z,3.80
2022-09-04T19:56:45.710Z,3.62
2022-09-04T19:59:30.463Z,4.00
2022-09-04T20:02:02.783Z,3.95
2022-09-04T20:04:42.324Z,4.05
2022-09-04T20:07:24.315Z,3.80
2022-09-04T20:09:56.536Z,3.75
2022-09-04T20:12:32.459Z,3.65
2022-09-04T20:15:12.209Z,3.62
2022-09-04T20:18:13.497Z,4.87
2022-09-04T20:20:59.600Z,4.12
2022-09-04T20:23:43.992Z,3.85
2022-09-04T20:26:25.722Z,4.10
2022-09-04T20:29:14.092Z,3.67
2022-09-04T20:32:11.822Z,4.10
2022-09-04T20:35:18.103Z,3.87
2022-09-04T20:37:56.620Z,3.97
2022-09-04T20:40:36.701Z,3.53
2022-09-04T20:43:28.816Z,4.00
2022-09-04T20:50:50.221Z,4.32
2022-09-04T20:52:49.568Z,3.50
2022-09-04T20:52:57.425Z,3.92
2022-09-04T20:55:04.576Z,3.62
2022-09-04T21:02:19.622Z,3.60
2022-09-04T21:03:23.362Z,3.72
2022-09-04T21:03:30.961Z,3.65
2022-09-04T21:06:25.429Z,3.65
2022-09-04T21:09:04.024Z,4.20
2022-09-04T21:11:45.998Z,4.22
2022-09-04T21:14:45.511Z,4.07
2022-09-04T21:17:33.775Z,3.83
2022-09-04T21:20:11.520Z,3.85
2022-09-04T21:23:04.160Z,4.05
2022-09-04T21:26:00.153Z,4.22
2022-09-04T21:29:07.287Z,3.95
2022-09-04T21:32:03.725Z,4.25
2022-09-04T21:35:13.215Z,4.15
2022-09-04T21:38:03.263Z,4.20
2022-09-04T21:40:50.761Z,4.50
2022-09-04T21:43:35.701Z,5.82
2022-09-04T21:46:39.118Z,4.68
2022-09-04T21:49:29.142Z,5.55
2022-09-04T21:52:02.881Z,5.10
2022-09-04T21:57:19.363Z,3.72
2022-09-04T22:02:27.917Z,3.35
2022-09-04T22:02:43.087Z,4.07
2022-09-04T22:04:44.455Z,3.80
2022-09-04T22:13:04.518Z,3.80
2022-09-04T22:13:30.494Z,3.72
2022-09-04T22:14:17.162Z,3.95
2022-09-04T22:17:07.366Z,4.07
2022-09-04T22:20:03.846Z,3.67
2022-09-04T22:23:08.337Z,4.10
2022-09-04T22:25:47.691Z,3.72
2022-09-04T22:28:22.303Z,4.12
2022-09-04T22:31:14.909Z,4.07
2022-09-04T22:34:15.922Z,5.00
2022-09-04T22:37:20.421Z,3.67
2022-09-04T22:40:14.967Z,3.47
2022-09-04T22:43:12.417Z,3.83
2022-09-04T22:46:11.486Z,3.42
2022-09-04T22:49:12.256Z,3.75
2022-09-04T22:52:00.863Z,3.90
2022-09-04T22:55:17.824Z,3.78
2022-09-04T22:58:15.485Z,3.90
2022-09-04T23:01:12.455Z,3.30
2022-09-04T23:04:09.150Z,3.50
2022-09-04T23:12:15.541Z,3.40
2022-09-04T23:13:49.354Z,4.00
2022-09-04T23:14:02.316Z,4.05
2022-09-04T23:16:36.253Z,3.55
2022-09-04T23:23:30.626Z,3.72
2022-09-04T23:26:47.170Z,3.30
2022-09-04T23:26:50.537Z,3.65
2022-09-04T23:29:21.457Z,3.70
2022-09-04T23:35:15.752Z,3.37
2022-09-04T23:37:45.417Z,3.20
2022-09-04T23:40:28.346Z,3.20
2022-09-04T23:43:25.844Z,3.67
2022-09-04T23:46:34.299Z,3.53
2022-09-04T23:49:35.288Z,3.40
2022-09-04T23:52:18.722Z,3.15
2022-09-04T23:55:06.659Z,3.85
2022-09-04T23:57:48.147Z,3.78
